Time;durP1;ratioP1;P1;durP2;ratioP2;P2;SDS_P1;SDS_P2;PMS_P1;PMS_P2;Temp;Humidity;BMP_temperature;BMP_pressure;BME280_temperature;BME280_humidity;BME280_pressure;Samples;Min_cycle;Max_cycle;Signal;HPM_P1;HPM_P2
2023/01/26 00:01:19;;;;;;;;;;;;;;;4.33;92.58;100814.34;5064475;28;19938;-57
2023/01/26 00:03:45;;;;;;;;;;;;;;;4.32;92.78;100810.84;5071809;28;20410;-57
2023/01/26 00:06:12;;;;;;;;;;;;;;;4.30;92.68;100802.03;5070524;28;19947;-57
2023/01/26 00:08:37;;;;;;;;;;;;;;;4.30;92.60;100804.66;5071329;28;19938;-57
2023/01/26 00:11:07;;;;;;;;;;;;;;;4.28;92.77;100795.91;5065292;28;19950;-57
2023/01/26 00:13:32;;;;;;;;;;;;;;;4.24;92.85;100799.38;5058187;28;20735;-57
2023/01/26 00:15:58;;;;;;;;;;;;;;;4.25;93.04;100797.66;5063012;28;19971;-57
2023/01/26 00:18:23;;;;;;;;;;;;;;;4.25;93.29;100795.88;5072381;28;19940;-57
2023/01/26 00:20:54;;;;;;;;;;;;;;;4.26;93.38;100789.75;5067845;28;19938;-57
2023/01/26 00:23:19;;;;;;;;;;;;;;;4.24;93.60;100787.97;5057408;28;19944;-57
2023/01/26 00:25:44;;;;;;;;;;;;;;;4.25;93.71;100785.34;5057506;28;19933;-57
2023/01/26 00:28:10;;;;;;;;;;;;;;;4.22;93.52;100790.59;5062314;28;19946;-57
2023/01/26 00:30:35;;;;;;;;;;;;;;;4.20;94.07;100787.06;5066233;28;19936;-57
2023/01/26 00:33:03;;;;;;;;;;;;;;;4.21;94.13;100780.06;5058615;28;20345;-56
2023/01/26 00:35:28;;;;;;;;;;;;;;;4.23;94.62;100773.94;5061643;28;19946;-57
2023/01/26 00:37:55;;;;;;;;;;;;;;;4.23;94.37;100775.69;5061291;28;20276;-56
2023/01/26 00:40:20;;;;;;;;;;;;;;;4.23;94.18;100771.31;5064477;28;20267;-57
2023/01/26 00:42:47;;;;;;;;;;;;;;;4.21;94.50;100770.41;5075887;28;19936;-57
2023/01/26 00:45:12;;;;;;;;;;;;;;;4.18;94.48;100762.50;5072878;28;20307;-57
2023/01/26 00:47:38;;;;;;;;;;;;;;;4.15;94.38;100766.88;5070300;28;19962;-56
2023/01/26 00:50:03;;;;;;;;;;;;;;;4.13;94.88;100761.59;5071869;28;19936;-56
2023/01/26 00:52:29;;;;;;;;;;;;;;;4.12;94.48;100757.19;5068435;28;19934;-56
2023/01/26 00:54:54;;;;;;;;;;;;;;;4.12;94.81;100751.94;5072198;28;19937;-56
2023/01/26 00:57:19;;;;;;;;;;;;;;;4.11;94.67;100739.66;5071970;28;20410;-57
2023/01/26 00:59:45;;;;;;;;;;;;;;;4.15;94.16;100744.06;5072468;28;19933;-57
2023/01/26 01:02:10;;;;;;;;;;;;;;;4.15;94.64;100754.59;5058481;28;19948;-57
2023/01/26 01:04:35;;;;;;;;;;;;;;;4.14;94.32;100749.28;5066520;28;20381;-57
2023/01/26 01:07:00;;;;;;;;;;;;;;;4.11;94.51;100744.91;5065178;28;19940;-57
2023/01/26 01:09:26;;;;;;;;;;;;;;;4.10;94.58;100743.16;5051160;28;20381;-56
2023/01/26 01:11:51;;;;;;;;;;;;;;;4.10;94.79;100743.16;5050750;28;19949;-56
2023/01/26 01:14:16;;;;;;;;;;;;;;;4.08;94.94;100744.91;5063958;28;19967;-56
2023/01/26 01:16:42;;;;;;;;;;;;;;;4.09;95.46;100741.38;5070666;28;19999;-57
2023/01/26 01:19:07;;;;;;;;;;;;;;;4.12;95.27;100735.28;5070000;28;20358;-56
2023/01/26 01:21:33;;;;;;;;;;;;;;;4.10;95.02;100737.91;5071853;28;19938;-56
2023/01/26 01:23:59;;;;;;;;;;;;;;;4.11;95.34;100734.38;5071129;28;19945;-57
2023/01/26 01:26:24;;;;;;;;;;;;;;;4.10;95.15;100727.38;5059399;28;19946;-57
2023/01/26 01:28:52;;;;;;;;;;;;;;;4.03;95.13;100733.47;5071296;28;19944;-57
2023/01/26 01:31:17;;;;;;;;;;;;;;;4.01;95.38;100724.69;5070472;28;20026;-56
2023/01/26 01:33:43;;;;;;;;;;;;;;;4.02;95.30;100723.78;5068220;28;20100;-57
2023/01/26 01:36:12;;;;;;;;;;;;;;;4.02;95.43;100732.59;5062787;28;19949;-56
2023/01/26 01:38:38;;;;;;;;;;;;;;;4.02;95.66;100724.69;5071454;28;20021;-56
2023/01/26 01:41:03;;;;;;;;;;;;;;;4.03;95.59;100720.31;5067905;28;19964;-57
2023/01/26 01:43:29;;;;;;;;;;;;;;;4.03;95.70;100723.84;5071219;28;20698;-56
2023/01/26 01:45:54;;;;;;;;;;;;;;;4.04;95.95;100719.44;5070743;28;20052;-57
2023/01/26 01:48:20;;;;;;;;;;;;;;;4.02;95.61;100719.41;5069512;28;19984;-58
2023/01/26 01:50:48;;;;;;;;;;;;;;;4.00;95.91;100725.56;5053372;28;19943;-56
2023/01/26 01:53:18;;;;;;;;;;;;;;;4.01;96.00;100722.03;5062909;28;19949;-57
2023/01/26 01:55:44;;;;;;;;;;;;;;;4.02;96.11;100715.91;5069385;28;20444;-57
2023/01/26 01:58:10;;;;;;;;;;;;;;;3.98;95.98;100716.78;5067603;28;20021;-57
2023/01/26 02:00:35;;;;;;;;;;;;;;;4.00;96.16;100721.16;5051386;28;20323;-57
2023/01/26 02:03:19;;;;;;;;;;;;;;;4.02;96.24;100721.16;5054305;28;19938;-56
2023/01/26 02:06:08;;;;;;;;;;;;;;;3.99;96.08;100718.53;5070911;28;19934;-56
2023/01/26 02:08:36;;;;;;;;;;;;;;;4.00;96.06;100710.63;5062335;28;20377;-56
2023/01/26 02:11:04;;;;;;;;;;;;;;;4.04;96.41;100711.53;5060238;28;19951;-57
2023/01/26 02:14:00;;;;;;;;;;;;;;;4.00;96.38;100715.91;5055923;28;20055;-56
2023/01/26 02:16:26;;;;;;;;;;;;;;;3.98;96.21;100708.88;5057063;28;19960;-56
2023/01/26 02:18:51;;;;;;;;;;;;;;;3.98;96.39;100711.50;5050614;28;19935;-56
2023/01/26 02:21:17;;;;;;;;;;;;;;;3.95;96.30;100707.09;5051044;28;19962;-56
2023/01/26 02:24:02;;;;;;;;;;;;;;;3.97;96.35;100704.47;5067410;28;20380;-56
2023/01/26 02:26:29;;;;;;;;;;;;;;;3.96;96.78;100703.63;5053079;28;20662;-56
2023/01/26 02:28:55;;;;;;;;;;;;;;;3.96;96.73;100698.34;5050794;28;19933;-57
2023/01/26 02:31:22;;;;;;;;;;;;;;;3.97;96.37;100705.34;5052287;28;19945;-57
2023/01/26 02:33:47;;;;;;;;;;;;;;;3.94;96.62;100699.19;5051036;28;20668;-57
2023/01/26 02:36:16;;;;;;;;;;;;;;;3.93;96.65;100702.72;5050122;28;19956;-56
2023/01/26 02:38:43;;;;;;;;;;;;;;;3.88;96.37;100704.44;5063309;28;20028;-56
2023/01/26 02:42:37;;;;;;;;;;;;;;;3.87;96.09;100702.69;5057501;28;20430;-56
2023/01/26 02:43:58;;;;;;;;;;;;;;;3.87;96.27;100705.31;5049623;28;19947;-57
2023/01/26 02:46:24;;;;;;;;;;;;;;;3.89;96.67;100690.41;5055764;28;19944;-57
2023/01/26 02:51:33;;;;;;;;;;;;;;;3.92;96.16;100701.81;5069371;28;20594;-56
2023/01/26 02:53:58;;;;;;;;;;;;;;;3.89;95.88;100700.91;5069344;28;19944;-56
2023/01/26 02:56:23;;;;;;;;;;;;;;;3.89;96.00;100696.56;5054325;28;19948;-57
2023/01/26 02:58:48;;;;;;;;;;;;;;;3.90;95.94;100697.44;5059999;28;19944;-58
2023/01/26 03:01:14;;;;;;;;;;;;;;;3.90;96.33;100697.44;5070214;28;19936;-56
2023/01/26 03:03:43;;;;;;;;;;;;;;;3.87;95.33;100703.56;5068948;28;20029;-57
2023/01/26 03:06:09;;;;;;;;;;;;;;;3.82;95.26;100694.75;5051506;28;19952;-56
2023/01/26 03:08:34;;;;;;;;;;;;;;;3.85;95.22;100693.91;5050046;28;19933;-56
2023/01/26 03:11:00;;;;;;;;;;;;;;;3.83;94.82;100690.38;5050067;28;20404;-56
2023/01/26 03:13:25;;;;;;;;;;;;;;;3.85;95.04;100686.00;5051154;28;20000;-56
2023/01/26 03:15:53;;;;;;;;;;;;;;;3.88;95.33;100694.81;5061181;28;20052;-57
2023/01/26 03:29:29;;;;;;;;;;;;;;;3.90;94.56;100692.19;5070129;28;19937;-56
2023/01/26 03:31:54;;;;;;;;;;;;;;;3.90;94.43;100692.19;5069575;28;20034;-56
2023/01/26 03:34:20;;;;;;;;;;;;;;;3.87;94.45;100689.53;5066872;28;20038;-57
2023/01/26 03:36:45;;;;;;;;;;;;;;;3.86;94.30;100685.13;5049353;28;20310;-57
2023/01/26 03:41:06;;;;;;;;;;;;;;;3.87;94.67;100689.53;5035287;28;19945;-57
2023/01/26 03:58:20;;;;;;;;;;;;;;;3.85;94.92;100668.47;5065418;28;19941;-56
2023/01/26 04:00:47;;;;;;;;;;;;;;;3.82;94.72;100671.06;5059021;28;19931;-56
2023/01/26 04:08:41;;;;;;;;;;;;;;;3.85;94.74;100662.34;5068172;28;19958;-57
2023/01/26 04:11:06;;;;;;;;;;;;;;;3.86;94.44;100664.97;5072176;28;19933;-57
2023/01/26 04:21:43;;;;;;;;;;;;;;;3.86;94.50;100658.81;5053426;28;19942;-56
2023/01/26 04:24:12;;;;;;;;;;;;;;;3.86;94.77;100653.56;5072263;28;19942;-57
2023/01/26 04:26:38;;;;;;;;;;;;;;;3.85;94.93;100647.44;5056196;28;19943;-56
2023/01/26 04:29:04;;;;;;;;;;;;;;;3.82;95.01;100647.41;5072915;28;20300;-57
2023/01/26 04:31:30;;;;;;;;;;;;;;;3.80;94.97;100643.00;5075362;28;19939;-56
2023/01/26 04:33:55;;;;;;;;;;;;;;;3.82;95.04;100646.53;5069843;28;19942;-57
2023/01/26 04:36:20;;;;;;;;;;;;;;;3.82;95.08;100641.28;5052398;28;19952;-56
2023/01/26 04:38:46;;;;;;;;;;;;;;;3.81;95.37;100640.38;5053082;28;20326;-56
2023/01/26 04:41:11;;;;;;;;;;;;;;;3.83;95.02;100646.53;5055121;28;19981;-56
2023/01/26 04:43:36;;;;;;;;;;;;;;;3.81;94.95;100639.50;5052888;28;19936;-56
2023/01/26 04:46:03;;;;;;;;;;;;;;;3.82;95.40;100631.59;5056430;28;19967;-56
2023/01/26 04:48:28;;;;;;;;;;;;;;;3.83;95.14;100637.75;5071655;28;20354;-56
2023/01/26 04:50:54;;;;;;;;;;;;;;;3.81;94.90;100628.97;5074376;28;20012;-57
2023/01/26 04:53:20;;;;;;;;;;;;;;;3.81;94.71;100634.22;5068323;28;19936;-56
2023/01/26 04:55:45;;;;;;;;;;;;;;;3.80;94.59;100632.50;5071603;28;19933;-56
2023/01/26 04:58:11;;;;;;;;;;;;;;;3.82;94.56;100633.38;5071805;28;19937;-56
2023/01/26 05:00:36;;;;;;;;;;;;;;;3.78;94.43;100628.97;5069090;28;19937;-56
2023/01/26 05:03:01;;;;;;;;;;;;;;;3.79;94.57;100622.81;5070420;28;19942;-57
2023/01/26 05:05:26;;;;;;;;;;;;;;;3.81;94.63;100627.22;5070781;28;19938;-56
2023/01/26 05:07:52;;;;;;;;;;;;;;;3.78;94.43;100632.47;5058584;28;19980;-57
2023/01/26 05:10:17;;;;;;;;;;;;;;;3.77;94.79;100632.47;5051748;28;20259;-57
2023/01/26 05:12:42;;;;;;;;;;;;;;;3.79;94.64;100620.19;5066829;28;19946;-57
2023/01/26 05:15:08;;;;;;;;;;;;;;;3.78;94.49;100631.59;5069877;28;20016;-57
2023/01/26 05:17:35;;;;;;;;;;;;;;;3.78;94.45;100628.97;5054123;28;19972;-57
2023/01/26 05:20:00;;;;;;;;;;;;;;;3.81;94.61;100629.88;5051036;28;19938;-57
2023/01/26 05:22:25;;;;;;;;;;;;;;;3.81;94.47;100624.59;5042014;28;19935;-56
2023/01/26 05:24:50;;;;;;;;;;;;;;;3.77;94.34;100612.28;5071316;28;19996;-57
2023/01/26 05:27:21;;;;;;;;;;;;;;;3.76;94.47;100614.91;5071684;28;20433;-56
2023/01/26 05:29:47;;;;;;;;;;;;;;;3.73;94.53;100620.16;5072941;28;19995;-56
2023/01/26 05:32:13;;;;;;;;;;;;;;;3.76;94.42;100622.81;5071482;28;20387;-56
2023/01/26 05:34:38;;;;;;;;;;;;;;;3.75;94.59;100624.59;5068323;28;20897;-57
2023/01/26 05:37:03;;;;;;;;;;;;;;;3.77;94.72;100627.22;5071195;28;20009;-56
2023/01/26 05:39:28;;;;;;;;;;;;;;;3.78;94.57;100618.44;5069625;28;19955;-56
2023/01/26 05:41:57;;;;;;;;;;;;;;;3.78;94.31;100618.44;5052577;28;19990;-57
2023/01/26 05:44:23;;;;;;;;;;;;;;;3.78;94.66;100613.19;5051571;28;19977;-56
2023/01/26 05:46:48;;;;;;;;;;;;;;;3.78;94.10;100618.44;5052766;28;19944;-57
2023/01/26 05:49:14;;;;;;;;;;;;;;;3.81;94.57;100607.94;5051732;28;19944;-56
2023/01/26 05:51:39;;;;;;;;;;;;;;;3.77;94.70;100614.06;5051586;28;19931;-56
2023/01/26 05:54:04;;;;;;;;;;;;;;;3.78;94.47;100607.91;5069227;28;20446;-56
2023/01/26 05:56:30;;;;;;;;;;;;;;;3.79;94.58;100615.81;5065904;28;20051;-57
2023/01/26 05:58:55;;;;;;;;;;;;;;;3.80;94.35;100606.19;5070652;28;19932;-56
2023/01/26 06:01:20;;;;;;;;;;;;;;;3.78;94.30;100605.28;5061543;28;20410;-56
2023/01/26 06:03:45;;;;;;;;;;;;;;;3.80;94.36;100606.19;5058653;28;19948;-57
2023/01/26 06:06:11;;;;;;;;;;;;;;;3.78;94.11;100608.81;5070024;28;20017;-56
2023/01/26 06:08:36;;;;;;;;;;;;;;;3.78;94.25;100607.91;5070334;28;19927;-56
2023/01/26 06:11:01;;;;;;;;;;;;;;;3.76;94.08;100614.91;5058472;28;20286;-56
2023/01/26 06:13:26;;;;;;;;;;;;;;;3.75;94.21;100610.53;5050694;28;19949;-56
2023/01/26 06:15:51;;;;;;;;;;;;;;;3.75;94.38;100611.44;5044906;28;19975;-57
2023/01/26 06:18:17;;;;;;;;;;;;;;;3.76;94.13;100612.28;5051152;28;20025;-56
2023/01/26 06:20:42;;;;;;;;;;;;;;;3.77;94.06;100616.69;5065476;28;20321;-56
2023/01/26 06:23:10;;;;;;;;;;;;;;;3.72;94.16;100611.38;5071179;28;20022;-56
2023/01/26 06:25:38;;;;;;;;;;;;;;;3.73;93.61;100618.44;5061588;28;20429;-56
2023/01/26 06:28:03;;;;;;;;;;;;;;;3.73;94.09;100620.16;5051116;28;20329;-56
2023/01/26 06:30:28;;;;;;;;;;;;;;;3.72;94.24;100616.66;5051601;28;19940;-56
2023/01/26 06:32:54;;;;;;;;;;;;;;;3.74;94.25;100627.22;5068895;28;19973;-56
2023/01/26 06:35:19;;;;;;;;;;;;;;;3.74;93.96;100617.53;5070037;28;20330;-57
2023/01/26 06:37:46;;;;;;;;;;;;;;;3.76;94.14;100617.56;5069812;28;20380;-57
2023/01/26 06:40:11;;;;;;;;;;;;;;;3.79;93.84;100620.19;5064775;28;19948;-56
2023/01/26 06:42:37;;;;;;;;;;;;;;;3.78;94.13;100619.34;5049367;28;19936;-56
2023/01/26 06:45:02;;;;;;;;;;;;;;;3.78;94.16;100611.44;5049209;28;19942;-57
2023/01/26 06:47:27;;;;;;;;;;;;;;;3.79;94.11;100615.81;5065273;28;19944;-57
2023/01/26 06:49:53;;;;;;;;;;;;;;;3.80;94.28;100622.84;5069011;28;19974;-57
2023/01/26 06:52:22;;;;;;;;;;;;;;;3.81;94.22;100613.19;5069534;28;19931;-56
2023/01/26 06:54:48;;;;;;;;;;;;;;;3.81;94.00;100621.06;5069970;28;19931;-56
2023/01/26 06:57:13;;;;;;;;;;;;;;;3.81;94.04;100628.97;5067580;28;20002;-56
2023/01/26 06:59:38;;;;;;;;;;;;;;;3.80;94.32;100625.47;5066820;28;20438;-57
2023/01/26 07:02:05;;;;;;;;;;;;;;;3.79;94.28;100621.06;5051969;28;19935;-56
2023/01/26 07:04:30;;;;;;;;;;;;;;;3.81;94.15;100623.72;5059059;28;20025;-57
2023/01/26 07:06:56;;;;;;;;;;;;;;;3.80;94.27;100624.59;5067810;28;20022;-56
2023/01/26 07:09:21;;;;;;;;;;;;;;;3.81;94.30;100628.97;5069271;28;21325;-58
2023/01/26 07:11:46;;;;;;;;;;;;;;;3.81;94.20;100624.59;5068380;28;20025;-56
2023/01/26 07:14:12;;;;;;;;;;;;;;;3.82;94.30;100618.44;5068749;28;20452;-56
2023/01/26 07:16:37;;;;;;;;;;;;;;;3.81;94.03;100621.06;5069007;28;19953;-56
2023/01/26 07:19:02;;;;;;;;;;;;;;;3.81;94.24;100627.22;5069015;28;19982;-56
2023/01/26 07:21:27;;;;;;;;;;;;;;;3.82;94.05;100628.97;5066577;28;19988;-56
2023/01/26 07:23:54;;;;;;;;;;;;;;;3.83;94.10;100627.22;5071771;28;19938;-57
2023/01/26 07:26:20;;;;;;;;;;;;;;;3.84;93.75;100618.44;5068780;28;19962;-58
2023/01/26 07:28:45;;;;;;;;;;;;;;;3.81;93.97;100629.88;5069744;28;19930;-56
2023/01/26 07:31:11;;;;;;;;;;;;;;;3.84;93.71;100634.25;5066722;28;19940;-57
2023/01/26 07:33:36;;;;;;;;;;;;;;;3.83;93.75;100638.66;5074129;28;19958;-56
2023/01/26 07:36:02;;;;;;;;;;;;;;;3.86;93.69;100635.13;5068345;28;20422;-57
2023/01/26 07:38:28;;;;;;;;;;;;;;;3.82;93.74;100636.00;5069531;28;19940;-57
2023/01/26 07:40:54;;;;;;;;;;;;;;;3.87;93.46;100634.28;5068767;28;20421;-57
2023/01/26 07:43:19;;;;;;;;;;;;;;;3.88;93.38;100636.91;5069073;28;19947;-58
2023/01/26 07:45:45;;;;;;;;;;;;;;;3.87;93.46;100636.91;5069241;28;20032;-57
2023/01/26 07:48:11;;;;;;;;;;;;;;;3.85;93.26;100636.03;5069380;28;19934;-57
2023/01/26 07:50:36;;;;;;;;;;;;;;;3.85;93.49;100633.38;5069964;28;19930;-57
2023/01/26 07:53:01;;;;;;;;;;;;;;;3.89;93.42;100632.50;5066830;28;19934;-57
2023/01/26 07:55:26;;;;;;;;;;;;;;;3.86;93.45;100635.13;5061703;28;20049;-57
2023/01/26 07:57:52;;;;;;;;;;;;;;;3.86;93.51;100643.91;5056653;28;20414;-57
2023/01/26 08:00:17;;;;;;;;;;;;;;;3.90;93.45;100634.28;5064497;28;20390;-58
2023/01/26 08:02:43;;;;;;;;;;;;;;;3.90;93.13;100637.78;5065460;28;19933;-57
2023/01/26 08:05:08;;;;;;;;;;;;;;;3.88;93.22;100641.28;5043146;28;19953;-57
2023/01/26 08:07:34;;;;;;;;;;;;;;;3.89;93.40;100637.78;5064837;28;19937;-57
2023/01/26 08:09:59;;;;;;;;;;;;;;;3.92;93.07;100643.06;5056594;28;19935;-57
2023/01/26 08:12:25;;;;;;;;;;;;;;;3.92;93.37;100638.66;5048007;28;20038;-57
2023/01/26 08:14:50;;;;;;;;;;;;;;;3.93;93.26;100650.97;5055222;28;20073;-58
2023/01/26 08:17:18;;;;;;;;;;;;;;;3.90;93.31;100647.44;5064375;28;19960;-57
2023/01/26 08:19:44;;;;;;;;;;;;;;;3.87;92.80;100647.44;5067943;28;20286;-57
2023/01/26 08:22:09;;;;;;;;;;;;;;;3.54;93.19;100603.41;5061772;28;20023;-56
2023/01/26 08:24:34;;;;;;;;;;;;;;;3.81;93.37;100650.91;5054965;28;20029;-57
2023/01/26 08:26:59;;;;;;;;;;;;;;;3.79;93.58;100654.38;5071605;28;19947;-57
2023/01/26 08:29:25;;;;;;;;;;;;;;;3.83;93.77;100664.06;5068909;28;20287;-56
2023/01/26 08:31:50;;;;;;;;;;;;;;;3.83;93.74;100651.81;5068907;28;19939;-57
2023/01/26 08:34:15;;;;;;;;;;;;;;;3.86;93.99;100654.44;5069382;28;19937;-57
2023/01/26 08:36:41;;;;;;;;;;;;;;;3.87;94.25;100663.22;5052461;28;19982;-57
2023/01/26 08:39:06;;;;;;;;;;;;;;;3.91;94.11;100652.72;5071139;28;19953;-58
2023/01/26 08:41:32;;;;;;;;;;;;;;;3.93;94.09;100657.97;5054291;28;19942;-57
2023/01/26 08:43:58;;;;;;;;;;;;;;;3.93;94.35;100663.25;5069140;28;19944;-57
2023/01/26 08:46:23;;;;;;;;;;;;;;;3.93;94.18;100660.59;5070085;28;19985;-56
2023/01/26 08:48:49;;;;;;;;;;;;;;;3.95;94.07;100661.50;5058465;28;19938;-57
2023/01/26 08:51:14;;;;;;;;;;;;;;;3.87;93.90;100658.81;5064140;28;19984;-57
2023/01/26 08:53:39;;;;;;;;;;;;;;;3.91;94.03;100660.59;5071865;28;20400;-57
2023/01/26 08:56:05;;;;;;;;;;;;;;;3.92;93.84;100659.72;5071256;28;19952;-57
2023/01/26 08:58:32;;;;;;;;;;;;;;;3.96;93.76;100657.97;5071886;28;20417;-57
2023/01/26 09:00:57;;;;;;;;;;;;;;;3.99;93.90;100660.63;5067277;28;19947;-56
2023/01/26 09:03:23;;;;;;;;;;;;;;;3.99;93.98;100660.63;5067568;28;19940;-56
2023/01/26 09:05:48;;;;;;;;;;;;;;;4.03;93.97;100660.66;5052959;28;19944;-57
2023/01/26 09:08:13;;;;;;;;;;;;;;;4.04;93.82;100648.34;5063454;28;19939;-57
2023/01/26 09:10:39;;;;;;;;;;;;;;;3.96;93.04;100656.25;5065107;28;20423;-56
2023/01/26 09:13:04;;;;;;;;;;;;;;;3.90;93.32;100655.34;5071972;28;19949;-56
2023/01/26 09:15:30;;;;;;;;;;;;;;;3.93;93.42;100660.59;5064463;28;19969;-57
2023/01/26 09:17:55;;;;;;;;;;;;;;;3.92;92.36;100667.63;5056349;28;19954;-57
2023/01/26 09:20:21;;;;;;;;;;;;;;;3.96;92.80;100673.78;5063398;28;20051;-57
2023/01/26 09:22:46;;;;;;;;;;;;;;;3.93;93.23;100666.75;5062368;28;20289;-57
2023/01/26 09:25:12;;;;;;;;;;;;;;;3.96;93.36;100665.88;5071012;28;20009;-56
2023/01/26 09:27:37;;;;;;;;;;;;;;;3.99;93.53;100664.16;5067741;28;19934;-57
2023/01/26 09:30:04;;;;;;;;;;;;;;;4.03;93.60;100672.94;5074565;28;19937;-57
2023/01/26 09:32:29;;;;;;;;;;;;;;;4.03;93.39;100673.81;5069172;28;19950;-57
2023/01/26 09:34:55;;;;;;;;;;;;;;;4.04;93.23;100675.56;5065277;28;20315;-57
2023/01/26 09:37:20;;;;;;;;;;;;;;;4.00;93.79;100683.47;5069469;28;19952;-58
2023/01/26 09:39:45;;;;;;;;;;;;;;;3.98;93.60;100679.94;5062476;28;20063;-57
2023/01/26 09:42:19;;;;;;;;;;;;;;;3.89;93.48;100680.75;5068721;28;19983;-57
2023/01/26 09:44:50;;;;;;;;;;;;;;;3.86;94.13;100680.75;5063046;28;19991;-57
2023/01/26 09:47:22;;;;;;;;;;;;;;;3.90;93.93;100679.03;5067280;28;19943;-57
2023/01/26 09:49:53;;;;;;;;;;;;;;;3.98;94.03;100679.94;5071603;28;19938;-57
2023/01/26 09:52:32;;;;;;;;;;;;;;;4.07;94.02;100673.84;5071149;28;20054;-57
2023/01/26 09:54:58;;;;;;;;;;;;;;;4.09;93.59;100667.69;5050057;28;19979;-57
2023/01/26 09:57:28;;;;;;;;;;;;;;;4.16;93.67;100674.75;5051006;28;20448;-57
2023/01/26 09:59:53;;;;;;;;;;;;;;;4.15;93.20;100661.56;5063630;28;19947;-57
2023/01/26 10:02:45;;;;;;;;;;;;;;;4.12;93.15;100657.16;5060358;28;20505;-57
2023/01/26 10:05:15;;;;;;;;;;;;;;;4.16;92.92;100663.31;5070576;28;19948;-57
2023/01/26 10:07:44;;;;;;;;;;;;;;;4.23;92.76;100665.09;5071244;28;20670;-57
2023/01/26 10:10:14;;;;;;;;;;;;;;;4.20;93.27;100658.06;5070881;28;19961;-57
2023/01/26 10:12:39;;;;;;;;;;;;;;;4.19;92.77;100664.22;5054013;28;20552;-58
2023/01/26 10:15:09;;;;;;;;;;;;;;;4.15;92.09;100667.72;5050283;28;20006;-57
2023/01/26 10:17:37;;;;;;;;;;;;;;;4.14;91.98;100673.84;5035003;28;19969;-57
2023/01/26 10:20:08;;;;;;;;;;;;;;;4.12;91.95;100667.69;5054119;28;19992;-57
2023/01/26 10:22:54;;;;;;;;;;;;;;;4.11;91.96;100671.22;5057663;28;20035;-57
2023/01/26 10:25:25;;;;;;;;;;;;;;;4.07;92.30;100670.31;5070188;28;19931;-58
2023/01/26 10:27:51;;;;;;;;;;;;;;;4.13;92.40;100663.31;5066595;28;19949;-58
2023/01/26 10:30:17;;;;;;;;;;;;;;;4.12;91.72;100657.16;5050623;28;19938;-57
2023/01/26 10:32:44;;;;;;;;;;;;;;;4.05;91.44;100665.94;5050480;28;19931;-57
2023/01/26 10:35:15;;;;;;;;;;;;;;;4.08;91.39;100655.41;5051943;28;19943;-56
2023/01/26 10:37:40;;;;;;;;;;;;;;;4.10;91.34;100652.78;5052216;28;19958;-57
2023/01/26 10:40:09;;;;;;;;;;;;;;;4.14;91.46;100646.63;5050455;28;19987;-57
2023/01/26 10:42:35;;;;;;;;;;;;;;;4.15;91.14;100651.94;5052384;28;20399;-57
2023/01/26 10:45:02;;;;;;;;;;;;;;;4.23;91.08;100644.03;5049735;28;20007;-57
2023/01/26 10:47:27;;;;;;;;;;;;;;;4.23;90.54;100651.94;5049895;28;20476;-57
2023/01/26 10:50:11;;;;;;;;;;;;;;;4.26;90.69;100641.41;5053450;28;19986;-57
2023/01/26 10:52:36;;;;;;;;;;;;;;;4.34;90.22;100642.31;5055839;28;19935;-57
2023/01/26 10:55:18;;;;;;;;;;;;;;;4.37;89.70;100632.66;5069689;28;20411;-57
2023/01/26 10:57:44;;;;;;;;;;;;;;;4.36;89.43;100628.28;5050656;28;20337;-57
2023/01/26 11:00:30;;;;;;;;;;;;;;;4.35;89.18;100634.41;5068253;28;19949;-57
2023/01/26 11:03:10;;;;;;;;;;;;;;;4.37;89.28;100627.41;5050213;28;20289;-57
2023/01/26 11:05:36;;;;;;;;;;;;;;;4.32;88.97;100623.88;5067791;28;20356;-57
2023/01/26 11:08:02;;;;;;;;;;;;;;;4.28;88.98;100622.13;5049606;28;19937;-57
2023/01/26 11:10:35;;;;;;;;;;;;;;;4.29;88.60;100621.25;5049877;28;19939;-57
2023/01/26 11:13:07;;;;;;;;;;;;;;;4.32;88.30;100618.59;5059086;28;19954;-58
2023/01/26 11:15:37;;;;;;;;;;;;;;;4.30;88.41;100619.50;5069177;28;19973;-57
2023/01/26 11:18:19;;;;;;;;;;;;;;;4.28;88.49;100622.13;5069694;28;19961;-57
2023/01/26 11:20:57;;;;;;;;;;;;;;;4.19;88.23;100624.72;5063413;28;20404;-57
2023/01/26 11:23:34;;;;;;;;;;;;;;;4.14;88.26;100623.84;5063096;28;19941;-57
2023/01/26 11:26:05;;;;;;;;;;;;;;;4.16;88.15;100627.34;5069575;28;19986;-57
2023/01/26 11:28:30;;;;;;;;;;;;;;;4.15;88.34;100624.72;5069892;28;19956;-57
2023/01/26 11:31:02;;;;;;;;;;;;;;;4.21;88.65;100616.81;5069067;28;19938;-56
2023/01/26 11:33:45;;;;;;;;;;;;;;;4.24;88.13;100617.72;5049829;28;19985;-57
2023/01/26 11:36:14;;;;;;;;;;;;;;;4.18;88.26;100616.81;5048765;28;19960;-58
2023/01/26 11:38:40;;;;;;;;;;;;;;;4.21;88.01;100617.72;5049719;28;19943;-57
2023/01/26 11:41:24;;;;;;;;;;;;;;;4.17;87.23;100612.44;5063213;28;19945;-57
2023/01/26 11:44:04;;;;;;;;;;;;;;;4.07;87.04;100608.03;5070197;28;19934;-58
2023/01/26 11:46:33;;;;;;;;;;;;;;;4.15;87.04;100601.91;5051354;28;20599;-57
2023/01/26 11:49:02;;;;;;;;;;;;;;;4.16;86.98;100601.03;5049425;28;20414;-57
2023/01/26 11:51:33;;;;;;;;;;;;;;;4.14;87.06;100597.50;5049447;28;19950;-56
2023/01/26 11:53:58;;;;;;;;;;;;;;;4.13;86.83;100595.75;5069254;28;19944;-57
2023/01/26 11:56:43;;;;;;;;;;;;;;;4.21;86.71;100598.41;5068696;28;20336;-57
2023/01/26 11:59:20;;;;;;;;;;;;;;;4.22;86.51;100590.50;5060048;28;19942;-57
2023/01/26 12:01:45;;;;;;;;;;;;;;;4.23;86.20;100589.66;5073626;28;19988;-57
2023/01/26 12:04:18;;;;;;;;;;;;;;;4.22;86.08;100585.22;5066052;28;20445;-57
2023/01/26 12:06:52;;;;;;;;;;;;;;;4.16;86.47;100585.22;5051851;28;19926;-57
2023/01/26 12:09:25;;;;;;;;;;;;;;;4.13;85.48;100573.81;5053002;28;19934;-57
2023/01/26 12:11:56;;;;;;;;;;;;;;;4.12;85.81;100572.94;5056906;28;19963;-58
2023/01/26 12:14:37;;;;;;;;;;;;;;;4.01;85.43;100574.66;5052779;28;19945;-57
2023/01/26 12:17:08;;;;;;;;;;;;;;;3.91;85.54;100571.13;5052993;28;20046;-57
2023/01/26 12:19:39;;;;;;;;;;;;;;;3.96;85.90;100573.78;5064094;28;19947;-57
2023/01/26 12:22:25;;;;;;;;;;;;;;;3.92;85.37;100569.41;5069736;28;19945;-59
2023/01/26 12:25:01;;;;;;;;;;;;;;;3.87;85.52;100569.34;5069986;28;20093;-59
2023/01/26 12:27:35;;;;;;;;;;;;;;;3.85;85.39;100564.97;5071349;28;19985;-58
2023/01/26 12:30:21;;;;;;;;;;;;;;;3.92;85.85;100558.88;5067973;28;19975;-58
2023/01/26 12:32:46;;;;;;;;;;;;;;;3.95;86.06;100572.88;5071538;28;19935;-61
2023/01/26 12:35:12;;;;;;;;;;;;;;;3.96;85.08;100565.88;5069829;28;20454;-62
2023/01/26 12:37:46;;;;;;;;;;;;;;;4.00;85.06;100551.88;5052941;28;20326;-63
2023/01/26 12:40:11;;;;;;;;;;;;;;;4.02;84.83;100547.47;5033619;28;19935;-63
2023/01/26 12:42:42;;;;;;;;;;;;;;;3.97;85.12;100539.56;5059432;28;19948;-64
2023/01/26 12:45:14;;;;;;;;;;;;;;;3.98;84.58;100545.72;5072610;28;20423;-63
2023/01/26 12:47:44;;;;;;;;;;;;;;;4.00;84.86;100541.34;5049753;28;20567;-61
2023/01/26 12:50:15;;;;;;;;;;;;;;;4.05;84.95;100552.75;5049286;28;19937;-63
2023/01/26 12:52:49;;;;;;;;;;;;;;;4.13;84.60;100551.00;5058274;28;20355;-64
2023/01/26 12:55:18;;;;;;;;;;;;;;;4.12;84.27;100546.59;5053202;28;19948;-63
2023/01/26 12:57:46;;;;;;;;;;;;;;;4.12;83.96;100543.13;5049843;28;19950;-62
2023/01/26 13:00:22;;;;;;;;;;;;;;;3.99;83.49;100543.09;5055319;28;20421;-63
2023/01/26 13:02:51;;;;;;;;;;;;;;;3.87;83.06;100547.44;5070324;28;19987;-63
2023/01/26 13:05:28;;;;;;;;;;;;;;;3.92;83.03;100543.09;5068651;28;20598;-63
2023/01/26 13:07:54;;;;;;;;;;;;;;;3.96;82.89;100536.94;5069198;28;19946;-63
2023/01/26 13:10:19;;;;;;;;;;;;;;;3.96;83.16;100534.31;5071432;28;20385;-63
2023/01/26 13:12:51;;;;;;;;;;;;;;;4.00;83.04;100538.72;5059142;28;20015;-62
2023/01/26 13:15:18;;;;;;;;;;;;;;;3.98;83.54;100533.44;4988673;28;1836390;-63
2023/01/26 13:17:48;;;;;;;;;;;;;;;3.95;83.26;100535.19;5051809;28;20589;-62
2023/01/26 13:20:20;;;;;;;;;;;;;;;3.97;83.09;100536.94;5036263;28;20040;-63
2023/01/26 13:22:46;;;;;;;;;;;;;;;3.99;83.29;100534.31;5066662;28;20024;-62
2023/01/26 13:25:12;;;;;;;;;;;;;;;4.05;83.58;100534.34;5070161;28;20468;-63
2023/01/26 13:27:37;;;;;;;;;;;;;;;4.07;83.20;100542.22;5053123;28;20322;-62
2023/01/26 13:30:23;;;;;;;;;;;;;;;4.05;83.78;100543.09;5051643;28;19947;-62
2023/01/26 13:32:48;;;;;;;;;;;;;;;4.04;83.63;100535.19;5053223;28;19964;-63
2023/01/26 13:35:19;;;;;;;;;;;;;;;4.09;83.55;100530.81;5050212;28;20372;-63